sensor_id;sensor_type;location;lat;lon;timestamp;temperature;humidity
10572;DHT22;5334;48.928;12.704;2023-01-19T00:01:23;1.60;99.90
10572;DHT22;5334;48.928;12.704;2023-01-19T00:03:49;1.60;99.90
10572;DHT22;5334;48.928;12.704;2023-01-19T00:06:15;1.60;99.90
10572;DHT22;5334;48.928;12.704;2023-01-19T00:08:41;1.60;99.90
10572;DHT22;5334;48.928;12.704;2023-01-19T00:11:11;1.60;99.90
10572;DHT22;5334;48.928;12.704;2023-01-19T00:13:37;1.60;99.90
10572;DHT22;5334;48.928;12.704;2023-01-19T00:16:04;1.60;99.90
10572;DHT22;5334;48.928;12.704;2023-01-19T00:18:30;1.60;99.90
10572;DHT22;5334;48.928;12.704;2023-01-19T00:20:55;1.60;99.90
10572;DHT22;5334;48.928;12.704;2023-01-19T00:23:21;1.50;99.90
10572;DHT22;5334;48.928;12.704;2023-01-19T00:25:47;1.60;99.90
10572;DHT22;5334;48.928;12.704;2023-01-19T00:28:16;1.60;99.90
10572;DHT22;5334;48.928;12.704;2023-01-19T00:30:43;1.50;99.90
10572;DHT22;5334;48.928;12.704;2023-01-19T00:33:09;1.50;99.90
10572;DHT22;5334;48.928;12.704;2023-01-19T00:35:35;1.50;99.90
10572;DHT22;5334;48.928;12.704;2023-01-19T00:38:02;1.50;99.90
10572;DHT22;5334;48.928;12.704;2023-01-19T00:40:27;1.50;99.90
10572;DHT22;5334;48.928;12.704;2023-01-19T00:42:53;1.50;99.90
10572;DHT22;5334;48.928;12.704;2023-01-19T00:45:21;1.50;99.90
10572;DHT22;5334;48.928;12.704;2023-01-19T00:47:48;1.50;99.90
10572;DHT22;5334;48.928;12.704;2023-01-19T00:50:19;1.40;99.90
10572;DHT22;5334;48.928;12.704;2023-01-19T00:52:45;1.50;99.90
10572;DHT22;5334;48.928;12.704;2023-01-19T00:55:12;1.40;99.90
10572;DHT22;5334;48.928;12.704;2023-01-19T00:57:39;1.40;99.90
10572;DHT22;5334;48.928;12.704;2023-01-19T01:00:07;1.40;99.90
10572;DHT22;5334;48.928;12.704;2023-01-19T01:02:33;1.40;99.90
10572;DHT22;5334;48.928;12.704;2023-01-19T01:04:59;1.40;99.90
10572;DHT22;5334;48.928;12.704;2023-01-19T01:07:28;1.40;99.90
10572;DHT22;5334;48.928;12.704;2023-01-19T01:09:54;1.40;99.90
10572;DHT22;5334;48.928;12.704;2023-01-19T01:12:21;1.40;99.90
10572;DHT22;5334;48.928;12.704;2023-01-19T01:14:47;1.40;99.90
10572;DHT22;5334;48.928;12.704;2023-01-19T01:17:13;1.40;99.90
10572;DHT22;5334;48.928;12.704;2023-01-19T01:19:41;1.40;99.90
10572;DHT22;5334;48.928;12.704;2023-01-19T01:22:08;1.40;99.90
10572;DHT22;5334;48.928;12.704;2023-01-19T01:24:34;1.40;99.90
10572;DHT22;5334;48.928;12.704;2023-01-19T01:27:00;1.40;99.90
10572;DHT22;5334;48.928;12.704;2023-01-19T01:29:26;1.40;99.90
10572;DHT22;5334;48.928;12.704;2023-01-19T01:31:52;1.40;99.90
10572;DHT22;5334;48.928;12.704;2023-01-19T01:34:18;1.50;99.90
10572;DHT22;5334;48.928;12.704;2023-01-19T01:36:43;1.40;99.90
10572;DHT22;5334;48.928;12.704;2023-01-19T01:39:09;1.40;99.90
10572;DHT22;5334;48.928;12.704;2023-01-19T01:41:35;1.40;99.90
10572;DHT22;5334;48.928;12.704;2023-01-19T01:44:01;1.40;99.90
10572;DHT22;5334;48.928;12.704;2023-01-19T01:46:30;1.40;99.90
10572;DHT22;5334;48.928;12.704;2023-01-19T01:49:12;1.40;99.90
10572;DHT22;5334;48.928;12.704;2023-01-19T01:51:45;1.50;99.90
10572;DHT22;5334;48.928;12.704;2023-01-19T01:56:42;1.40;99.90
10572;DHT22;5334;48.928;12.704;2023-01-19T01:59:12;1.40;99.90
10572;DHT22;5334;48.928;12.704;2023-01-19T02:02:01;1.40;99.90
10572;DHT22;5334;48.928;12.704;2023-01-19T02:04:50;1.50;99.90
10572;DHT22;5334;48.928;12.704;2023-01-19T02:07:30;1.50;99.90
10572;DHT22;5334;48.928;12.704;2023-01-19T02:10:16;1.50;99.90
10572;DHT22;5334;48.928;12.704;2023-01-19T02:13:02;1.50;99.90
10572;DHT22;5334;48.928;12.704;2023-01-19T02:15:51;1.50;99.90
10572;DHT22;5334;48.928;12.704;2023-01-19T02:18:19;1.50;99.90
10572;DHT22;5334;48.928;12.704;2023-01-19T02:21:09;1.50;99.90
10572;DHT22;5334;48.928;12.704;2023-01-19T02:23:51;1.50;99.90
10572;DHT22;5334;48.928;12.704;2023-01-19T02:26:30;1.50;99.90
10572;DHT22;5334;48.928;12.704;2023-01-19T02:31:25;1.40;99.90
10572;DHT22;5334;48.928;12.704;2023-01-19T02:33:51;1.30;99.90
10572;DHT22;5334;48.928;12.704;2023-01-19T02:36:23;1.30;99.90
10572;DHT22;5334;48.928;12.704;2023-01-19T02:38:52;1.30;99.90
10572;DHT22;5334;48.928;12.704;2023-01-19T02:41:23;1.20;99.90
10572;DHT22;5334;48.928;12.704;2023-01-19T02:43:51;1.20;99.90
10572;DHT22;5334;48.928;12.704;2023-01-19T02:46:18;1.20;99.90
10572;DHT22;5334;48.928;12.704;2023-01-19T02:48:43;1.20;99.90
10572;DHT22;5334;48.928;12.704;2023-01-19T02:51:29;1.10;99.90
10572;DHT22;5334;48.928;12.704;2023-01-19T03:16:12;0.70;99.90
10572;DHT22;5334;48.928;12.704;2023-01-19T03:18:39;0.60;99.90
10572;DHT22;5334;48.928;12.704;2023-01-19T03:21:08;0.70;99.90
10572;DHT22;5334;48.928;12.704;2023-01-19T03:23:37;0.70;99.90
10572;DHT22;5334;48.928;12.704;2023-01-19T03:26:08;0.70;99.90
10572;DHT22;5334;48.928;12.704;2023-01-19T03:28:38;0.80;99.90
10572;DHT22;5334;48.928;12.704;2023-01-19T03:31:19;0.70;99.90
10572;DHT22;5334;48.928;12.704;2023-01-19T03:34:01;0.60;99.90
10572;DHT22;5334;48.928;12.704;2023-01-19T03:38:57;0.60;99.90
10572;DHT22;5334;48.928;12.704;2023-01-19T03:41:25;0.70;99.90
10572;DHT22;5334;48.928;12.704;2023-01-19T03:43:53;0.60;99.90
10572;DHT22;5334;48.928;12.704;2023-01-19T03:46:21;0.50;99.90
10572;DHT22;5334;48.928;12.704;2023-01-19T03:48:47;0.60;99.90
10572;DHT22;5334;48.928;12.704;2023-01-19T03:51:15;0.50;99.90
10572;DHT22;5334;48.928;12.704;2023-01-19T03:53:41;0.50;99.90
10572;DHT22;5334;48.928;12.704;2023-01-19T03:58:44;0.80;99.90
10572;DHT22;5334;48.928;12.704;2023-01-19T04:01:09;0.60;99.90
10572;DHT22;5334;48.928;12.704;2023-01-19T04:03:35;0.60;99.90
10572;DHT22;5334;48.928;12.704;2023-01-19T04:06:01;0.60;99.90
10572;DHT22;5334;48.928;12.704;2023-01-19T04:08:27;0.00;99.90
10572;DHT22;5334;48.928;12.704;2023-01-19T04:10:53;0.60;99.90
10572;DHT22;5334;48.928;12.704;2023-01-19T04:13:18;0.60;99.90
10572;DHT22;5334;48.928;12.704;2023-01-19T04:15:44;0.60;99.90
10572;DHT22;5334;48.928;12.704;2023-01-19T04:18:10;0.60;99.90
10572;DHT22;5334;48.928;12.704;2023-01-19T04:20:36;0.60;99.90
10572;DHT22;5334;48.928;12.704;2023-01-19T04:23:02;0.60;99.90
10572;DHT22;5334;48.928;12.704;2023-01-19T04:25:28;0.60;99.90
10572;DHT22;5334;48.928;12.704;2023-01-19T04:27:54;0.50;99.90
10572;DHT22;5334;48.928;12.704;2023-01-19T04:30:20;0.50;99.90
10572;DHT22;5334;48.928;12.704;2023-01-19T04:32:47;0.50;99.90
10572;DHT22;5334;48.928;12.704;2023-01-19T04:35:12;0.50;99.90
10572;DHT22;5334;48.928;12.704;2023-01-19T04:37:38;0.40;99.90
10572;DHT22;5334;48.928;12.704;2023-01-19T04:40:05;0.30;99.90
10572;DHT22;5334;48.928;12.704;2023-01-19T04:42:30;0.30;99.90
10572;DHT22;5334;48.928;12.704;2023-01-19T04:44:56;-0.50;99.90
10572;DHT22;5334;48.928;12.704;2023-01-19T04:47:22;0.20;99.90
10572;DHT22;5334;48.928;12.704;2023-01-19T04:49:48;0.30;99.90
10572;DHT22;5334;48.928;12.704;2023-01-19T04:52:13;0.00;99.90
10572;DHT22;5334;48.928;12.704;2023-01-19T04:54:39;-0.40;99.90
10572;DHT22;5334;48.928;12.704;2023-01-19T04:57:05;0.60;99.90
10572;DHT22;5334;48.928;12.704;2023-01-19T04:59:30;0.20;99.90
10572;DHT22;5334;48.928;12.704;2023-01-19T05:01:56;0.20;99.90
10572;DHT22;5334;48.928;12.704;2023-01-19T05:06:50;0.10;99.90
10572;DHT22;5334;48.928;12.704;2023-01-19T05:09:16;0.00;99.90
10572;DHT22;5334;48.928;12.704;2023-01-19T05:11:41;0.00;99.90
10572;DHT22;5334;48.928;12.704;2023-01-19T05:14:07;0.00;99.90
10572;DHT22;5334;48.928;12.704;2023-01-19T05:18:59;-0.10;99.90
10572;DHT22;5334;48.928;12.704;2023-01-19T05:21:25;-0.10;99.90
10572;DHT22;5334;48.928;12.704;2023-01-19T05:23:51;-0.20;99.90
10572;DHT22;5334;48.928;12.704;2023-01-19T05:26:16;-0.60;99.90
10572;DHT22;5334;48.928;12.704;2023-01-19T05:28:42;-0.40;99.90
10572;DHT22;5334;48.928;12.704;2023-01-19T05:31:08;-0.30;99.90
10572;DHT22;5334;48.928;12.704;2023-01-19T05:33:33;-0.30;99.90
10572;DHT22;5334;48.928;12.704;2023-01-19T05:35:59;-0.30;99.90
10572;DHT22;5334;48.928;12.704;2023-01-19T05:38:25;-0.30;99.90
10572;DHT22;5334;48.928;12.704;2023-01-19T05:40:56;-0.10;99.90
10572;DHT22;5334;48.928;12.704;2023-01-19T05:43:22;-0.20;99.90
10572;DHT22;5334;48.928;12.704;2023-01-19T05:45:50;-0.30;99.90
10572;DHT22;5334;48.928;12.704;2023-01-19T05:48:15;-0.30;99.90
10572;DHT22;5334;48.928;12.704;2023-01-19T05:50:42;-0.30;99.90
10572;DHT22;5334;48.928;12.704;2023-01-19T05:53:07;-0.30;99.90
10572;DHT22;5334;48.928;12.704;2023-01-19T05:55:33;-0.30;99.90
10572;DHT22;5334;48.928;12.704;2023-01-19T05:57:59;-0.20;99.90
10572;DHT22;5334;48.928;12.704;2023-01-19T06:00:26;-0.30;99.90
10572;DHT22;5334;48.928;12.704;2023-01-19T06:02:52;-0.30;99.90
10572;DHT22;5334;48.928;12.704;2023-01-19T06:05:18;-0.40;99.90
10572;DHT22;5334;48.928;12.704;2023-01-19T06:07:43;-0.40;99.90
10572;DHT22;5334;48.928;12.704;2023-01-19T06:10:11;-0.40;99.90
10572;DHT22;5334;48.928;12.704;2023-01-19T06:12:39;-0.40;99.90
10572;DHT22;5334;48.928;12.704;2023-01-19T06:15:06;-0.40;99.90
10572;DHT22;5334;48.928;12.704;2023-01-19T06:17:32;-0.40;99.90
10572;DHT22;5334;48.928;12.704;2023-01-19T06:19:57;-0.50;99.90
10572;DHT22;5334;48.928;12.704;2023-01-19T06:22:23;-0.50;99.90
10572;DHT22;5334;48.928;12.704;2023-01-19T06:24:49;1.30;99.90
10572;DHT22;5334;48.928;12.704;2023-01-19T06:27:15;-0.60;99.90
10572;DHT22;5334;48.928;12.704;2023-01-19T06:29:41;-0.60;99.90
10572;DHT22;5334;48.928;12.704;2023-01-19T06:32:06;-0.60;99.90
10572;DHT22;5334;48.928;12.704;2023-01-19T06:34:32;-0.60;99.90
10572;DHT22;5334;48.928;12.704;2023-01-19T06:36:58;-1.60;99.90
10572;DHT22;5334;48.928;12.704;2023-01-19T06:39:23;-0.60;99.90
10572;DHT22;5334;48.928;12.704;2023-01-19T06:41:49;-0.70;99.90
10572;DHT22;5334;48.928;12.704;2023-01-19T06:44:15;-0.70;99.90
10572;DHT22;5334;48.928;12.704;2023-01-19T06:46:41;-0.50;99.90
10572;DHT22;5334;48.928;12.704;2023-01-19T06:49:06;-0.60;99.90
10572;DHT22;5334;48.928;12.704;2023-01-19T06:51:32;-0.60;99.90
10572;DHT22;5334;48.928;12.704;2023-01-19T06:53:58;-0.60;99.90
10572;DHT22;5334;48.928;12.704;2023-01-19T06:56:24;-0.60;99.90
10572;DHT22;5334;48.928;12.704;2023-01-19T06:58:50;-0.70;99.90
10572;DHT22;5334;48.928;12.704;2023-01-19T07:01:17;-0.10;99.90
10572;DHT22;5334;48.928;12.704;2023-01-19T07:03:43;-1.30;99.90
10572;DHT22;5334;48.928;12.704;2023-01-19T07:06:09;-0.50;99.90
10572;DHT22;5334;48.928;12.704;2023-01-19T07:08:36;-0.70;99.90
10572;DHT22;5334;48.928;12.704;2023-01-19T07:11:03;-0.70;99.90
10572;DHT22;5334;48.928;12.704;2023-01-19T07:13:34;-0.80;99.90
10572;DHT22;5334;48.928;12.704;2023-01-19T07:16:08;-0.50;99.90
10572;DHT22;5334;48.928;12.704;2023-01-19T07:18:38;-0.60;99.90
10572;DHT22;5334;48.928;12.704;2023-01-19T07:21:04;-0.60;99.90
10572;DHT22;5334;48.928;12.704;2023-01-19T07:23:30;-0.60;99.90
10572;DHT22;5334;48.928;12.704;2023-01-19T07:25:57;-0.50;99.90
10572;DHT22;5334;48.928;12.704;2023-01-19T07:28:23;-0.60;99.90
10572;DHT22;5334;48.928;12.704;2023-01-19T07:30:55;-0.50;99.90
10572;DHT22;5334;48.928;12.704;2023-01-19T07:33:21;-0.50;99.90
10572;DHT22;5334;48.928;12.704;2023-01-19T07:35:48;0.70;99.90
10572;DHT22;5334;48.928;12.704;2023-01-19T07:38:14;-0.50;99.90
10572;DHT22;5334;48.928;12.704;2023-01-19T07:40:40;-0.50;99.90
10572;DHT22;5334;48.928;12.704;2023-01-19T07:43:06;-0.50;99.90
10572;DHT22;5334;48.928;12.704;2023-01-19T07:45:32;-0.40;99.90
10572;DHT22;5334;48.928;12.704;2023-01-19T07:47:57;-0.40;99.90
10572;DHT22;5334;48.928;12.704;2023-01-19T07:50:23;-0.30;99.90
10572;DHT22;5334;48.928;12.704;2023-01-19T07:52:51;-0.20;99.90
10572;DHT22;5334;48.928;12.704;2023-01-19T07:55:22;-0.20;99.90
10572;DHT22;5334;48.928;12.704;2023-01-19T07:57:51;-0.10;99.90
10572;DHT22;5334;48.928;12.704;2023-01-19T08:00:18;-0.10;99.90
10572;DHT22;5334;48.928;12.704;2023-01-19T08:02:48;-0.20;99.90
10572;DHT22;5334;48.928;12.704;2023-01-19T08:05:16;-0.10;99.90
10572;DHT22;5334;48.928;12.704;2023-01-19T08:07:42;-0.10;99.90
10572;DHT22;5334;48.928;12.704;2023-01-19T08:10:08;-0.10;99.90
10572;DHT22;5334;48.928;12.704;2023-01-19T08:12:35;-0.10;99.90
10572;DHT22;5334;48.928;12.704;2023-01-19T08:15:00;-0.10;99.90
10572;DHT22;5334;48.928;12.704;2023-01-19T08:17:26;0.00;99.90
10572;DHT22;5334;48.928;12.704;2023-01-19T08:19:52;0.00;99.90
10572;DHT22;5334;48.928;12.704;2023-01-19T08:22:17;0.00;99.90
10572;DHT22;5334;48.928;12.704;2023-01-19T08:24:43;0.00;99.90
10572;DHT22;5334;48.928;12.704;2023-01-19T08:27:08;0.10;99.90
10572;DHT22;5334;48.928;12.704;2023-01-19T08:29:34;-0.10;99.90
10572;DHT22;5334;48.928;12.704;2023-01-19T08:32:00;0.00;99.90
10572;DHT22;5334;48.928;12.704;2023-01-19T08:34:28;0.20;99.90
10572;DHT22;5334;48.928;12.704;2023-01-19T08:36:55;0.40;99.90
10572;DHT22;5334;48.928;12.704;2023-01-19T08:39:21;0.50;99.90
10572;DHT22;5334;48.928;12.704;2023-01-19T08:44:16;0.50;99.90
10572;DHT22;5334;48.928;12.704;2023-01-19T08:46:41;0.60;99.90
10572;DHT22;5334;48.928;12.704;2023-01-19T08:49:07;0.90;99.90
10572;DHT22;5334;48.928;12.704;2023-01-19T08:51:33;0.60;99.90
10572;DHT22;5334;48.928;12.704;2023-01-19T08:53:59;0.60;99.90
10572;DHT22;5334;48.928;12.704;2023-01-19T08:56:25;0.60;99.90
10572;DHT22;5334;48.928;12.704;2023-01-19T08:58:51;0.70;99.90
10572;DHT22;5334;48.928;12.704;2023-01-19T09:01:16;0.70;99.90
10572;DHT22;5334;48.928;12.704;2023-01-19T09:03:45;1.00;99.90
10572;DHT22;5334;48.928;12.704;2023-01-19T09:06:13;1.00;99.90
10572;DHT22;5334;48.928;12.704;2023-01-19T09:08:41;0.80;99.90
10572;DHT22;5334;48.928;12.704;2023-01-19T09:11:11;0.80;99.90
10572;DHT22;5334;48.928;12.704;2023-01-19T09:13:38;1.00;99.90
10572;DHT22;5334;48.928;12.704;2023-01-19T09:16:04;1.00;99.90
10572;DHT22;5334;48.928;12.704;2023-01-19T09:18:32;1.10;99.90
10572;DHT22;5334;48.928;12.704;2023-01-19T09:20:59;1.20;99.90
10572;DHT22;5334;48.928;12.704;2023-01-19T09:23:25;1.30;99.90
10572;DHT22;5334;48.928;12.704;2023-01-19T09:25:56;1.40;99.90
10572;DHT22;5334;48.928;12.704;2023-01-19T09:28:23;1.30;99.90
10572;DHT22;5334;48.928;12.704;2023-01-19T09:30:48;1.30;99.90
10572;DHT22;5334;48.928;12.704;2023-01-19T09:33:15;1.40;99.90
10572;DHT22;5334;48.928;12.704;2023-01-19T09:35:43;1.30;99.90
10572;DHT22;5334;48.928;12.704;2023-01-19T09:38:09;1.40;99.90
10572;DHT22;5334;48.928;12.704;2023-01-19T09:41:08;1.40;99.90
10572;DHT22;5334;48.928;12.704;2023-01-19T09:46:31;1.40;99.90
10572;DHT22;5334;48.928;12.704;2023-01-19T09:49:01;1.50;99.90
10572;DHT22;5334;48.928;12.704;2023-01-19T09:51:38;1.50;99.90
10572;DHT22;5334;48.928;12.704;2023-01-19T09:54:34;1.40;99.90
10572;DHT22;5334;48.928;12.704;2023-01-19T09:57:01;1.60;99.90
10572;DHT22;5334;48.928;12.704;2023-01-19T09:59:31;1.60;99.90
10572;DHT22;5334;48.928;12.704;2023-01-19T10:05:00;1.50;99.90
10572;DHT22;5334;48.928;12.704;2023-01-19T10:18:35;1.60;99.90
10572;DHT22;5334;48.928;12.704;2023-01-19T10:23:55;1.40;99.90
10572;DHT22;5334;48.928;12.704;2023-01-19T10:26:36;1.80;99.90
10572;DHT22;5334;48.928;12.704;2023-01-19T10:29:09;1.90;99.90
10572;DHT22;5334;48.928;12.704;2023-01-19T10:36:37;2.90;99.90
10572;DHT22;5334;48.928;12.704;2023-01-19T10:39:08;3.00;99.90
10572;DHT22;5334;48.928;12.704;2023-01-19T10:41:52;3.10;99.90
10572;DHT22;5334;48.928;12.704;2023-01-19T10:44:26;2.90;99.90
10572;DHT22;5334;48.928;12.704;2023-01-19T10:46:55;2.70;99.90
10572;DHT22;5334;48.928;12.704;2023-01-19T10:49:37;2.60;99.90
10572;DHT22;5334;48.928;12.704;2023-01-19T10:52:06;2.40;99.90
10572;DHT22;5334;48.928;12.704;2023-01-19T10:54:33;2.40;99.90
10572;DHT22;5334;48.928;12.704;2023-01-19T10:57:03;2.40;99.90
10572;DHT22;5334;48.928;12.704;2023-01-19T10:59:48;2.40;99.90
10572;DHT22;5334;48.928;12.704;2023-01-19T11:02:20;2.60;99.90
10572;DHT22;5334;48.928;12.704;2023-01-19T11:04:50;2.40;99.90
10572;DHT22;5334;48.928;12.704;2023-01-19T11:07:21;2.30;99.90
10572;DHT22;5334;48.928;12.704;2023-01-19T11:09:48;2.40;99.90
10572;DHT22;5334;48.928;12.704;2023-01-19T11:12:21;2.60;99.90
10572;DHT22;5334;48.928;12.704;2023-01-19T11:14:48;2.70;99.90
10572;DHT22;5334;48.928;12.704;2023-01-19T11:17:23;2.50;99.90
10572;DHT22;5334;48.928;12.704;2023-01-19T11:20:00;2.70;99.90
10572;DHT22;5334;48.928;12.704;2023-01-19T11:22:32;2.90;99.90
10572;DHT22;5334;48.928;12.704;2023-01-19T11:25:00;2.70;99.90
10572;DHT22;5334;48.928;12.704;2023-01-19T11:27:27;2.80;99.90
10572;DHT22;5334;48.928;12.704;2023-01-19T11:30:16;2.80;99.90
10572;DHT22;5334;48.928;12.704;2023-01-19T11:32:42;2.90;99.90
10572;DHT22;5334;48.928;12.704;2023-01-19T11:35:34;3.00;99.90
10572;DHT22;5334;48.928;12.704;2023-01-19T11:40:34;3.60;99.90
10572;DHT22;5334;48.928;12.704;2023-01-19T11:43:00;3.70;99.90
10572;DHT22;5334;48.928;12.704;2023-01-19T11:45:25;3.80;99.90
10572;DHT22;5334;48.928;12.704;2023-01-19T11:47:51;3.60;99.90
10572;DHT22;5334;48.928;12.704;2023-01-19T11:50:41;3.50;99.90
10572;DHT22;5334;48.928;12.704;2023-01-19T11:53:24;3.20;99.90
10572;DHT22;5334;48.928;12.704;2023-01-19T11:55:58;3.00;99.90
10572;DHT22;5334;48.928;12.704;2023-01-19T11:58:28;2.70;99.90
10572;DHT22;5334;48.928;12.704;2023-01-19T12:01:27;2.60;99.90
10572;DHT22;5334;48.928;12.704;2023-01-19T12:04:03;2.40;99.90
10572;DHT22;5334;48.928;12.704;2023-01-19T12:06:34;2.20;99.90
10572;DHT22;5334;48.928;12.704;2023-01-19T12:09:12;2.00;99.90
10572;DHT22;5334;48.928;12.704;2023-01-19T12:12:00;2.00;99.90
10572;DHT22;5334;48.928;12.704;2023-01-19T12:14:37;2.10;99.90
10572;DHT22;5334;48.928;12.704;2023-01-19T12:17:07;2.50;99.90
10572;DHT22;5334;48.928;12.704;2023-01-19T12:19:44;2.80;99.90
10572;DHT22;5334;48.928;12.704;2023-01-19T12:22:14;3.10;99.90
10572;DHT22;5334;48.928;12.704;2023-01-19T12:25:05;3.30;99.90
10572;DHT22;5334;48.928;12.704;2023-01-19T12:30:01;4.10;99.90
10572;DHT22;5334;48.928;12.704;2023-01-19T12:32:34;4.10;99.90
10572;DHT22;5334;48.928;12.704;2023-01-19T12:35:01;4.30;99.90
10572;DHT22;5334;48.928;12.704;2023-01-19T12:37:30;4.50;99.90
10572;DHT22;5334;48.928;12.704;2023-01-19T12:40:00;4.60;99.90
10572;DHT22;5334;48.928;12.704;2023-01-19T12:42:27;4.60;99.90
10572;DHT22;5334;48.928;12.704;2023-01-19T12:45:13;4.50;99.90
10572;DHT22;5334;48.928;12.704;2023-01-19T12:47:49;4.70;99.90
10572;DHT22;5334;48.928;12.704;2023-01-19T12:52:52;4.80;99.90
10572;DHT22;5334;48.928;12.704;2023-01-19T12:55:32;4.30;99.90
10572;DHT22;5334;48.928;12.704;2023-01-19T12:58:07;3.60;99.90
10572;DHT22;5334;48.928;12.704;2023-01-19T13:00:39;3.20;99.90
10572;DHT22;5334;48.928;12.704;2023-01-19T13:21:35;3.00;99.90
10572;DHT22;5334;48.928;12.704;2023-01-19T13:24:06;3.00;99.90
10572;DHT22;5334;48.928;12.704;2023-01-19T13:26:36;3.10;99.90
10572;DHT22;5334;48.928;12.704;2023-01-19T13:31:41;3.10;99.90
10572;DHT22;5334;48.928;12.704;2023-01-19T13:34:14;3.10;99.90
10572;DHT22;5334;48.928;12.704;2023-01-19T13:36:44;3.20;99.90
10572;DHT22;5334;48.928;12.704;2023-01-19T13:41:48;3.20;99.90
10572;DHT22;5334;48.928;12.704;2023-01-19T13:44:46;3.10;99.90
10572;DHT22;5334;48.928;12.704;2023-01-19T13:47:26;2.90;99.90
10572;DHT22;5334;48.928;12.704;2023-01-19T13:49:57;2.80;99.90
10572;DHT22;5334;48.928;12.704;2023-01-19T13:52:24;2.90;99.90
10572;DHT22;5334;48.928;12.704;2023-01-19T13:57:31;3.10;99.90
10572;DHT22;5334;48.928;12.704;2023-01-19T14:00:18;3.10;99.90
10572;DHT22;5334;48.928;12.704;2023-01-19T14:10:34;2.60;99.90
10572;DHT22;5334;48.928;12.704;2023-01-19T14:13:02;2.50;99.90
10572;DHT22;5334;48.928;12.704;2023-01-19T14:15:33;2.50;99.90
10572;DHT22;5334;48.928;12.704;2023-01-19T14:23:45;2.40;99.90
10572;DHT22;5334;48.928;12.704;2023-01-19T14:29:27;2.30;99.90
10572;DHT22;5334;48.928;12.704;2023-01-19T14:36:57;2.30;99.90
10572;DHT22;5334;48.928;12.704;2023-01-19T14:39:25;2.30;99.90
10572;DHT22;5334;48.928;12.704;2023-01-19T14:44:30;2.10;99.90
10572;DHT22;5334;48.928;12.704;2023-01-19T14:46:58;2.00;99.90
10572;DHT22;5334;48.928;12.704;2023-01-19T14:51:55;2.00;99.90
10572;DHT22;5334;48.928;12.704;2023-01-19T14:54:37;2.00;99.90
10572;DHT22;5334;48.928;12.704;2023-01-19T14:57:04;2.10;99.90
10572;DHT22;5334;48.928;12.704;2023-01-19T14:59:30;2.00;99.90
10572;DHT22;5334;48.928;12.704;2023-01-19T15:01:56;2.00;99.90
10572;DHT22;5334;48.928;12.704;2023-01-19T15:04:24;2.00;99.90
10572;DHT22;5334;48.928;12.704;2023-01-19T15:06:50;2.00;99.90
10572;DHT22;5334;48.928;12.704;2023-01-19T15:09:16;2.00;99.90
10572;DHT22;5334;48.928;12.704;2023-01-19T15:11:42;1.90;99.90
10572;DHT22;5334;48.928;12.704;2023-01-19T15:14:13;1.90;99.90
10572;DHT22;5334;48.928;12.704;2023-01-19T15:16:39;1.90;99.90
10572;DHT22;5334;48.928;12.704;2023-01-19T15:19:07;1.90;99.90
10572;DHT22;5334;48.928;12.704;2023-01-19T15:21:33;1.80;99.90
10572;DHT22;5334;48.928;12.704;2023-01-19T15:23:59;1.80;99.90
10572;DHT22;5334;48.928;12.704;2023-01-19T15:26:26;1.80;99.90
10572;DHT22;5334;48.928;12.704;2023-01-19T15:28:53;1.70;99.90
10572;DHT22;5334;48.928;12.704;2023-01-19T15:31:22;1.80;99.90
10572;DHT22;5334;48.928;12.704;2023-01-19T15:33:49;1.80;99.90
10572;DHT22;5334;48.928;12.704;2023-01-19T15:36:18;1.70;99.90
10572;DHT22;5334;48.928;12.704;2023-01-19T15:38:45;1.70;99.90
10572;DHT22;5334;48.928;12.704;2023-01-19T15:43:43;1.60;99.90
10572;DHT22;5334;48.928;12.704;2023-01-19T15:46:13;1.70;99.90
10572;DHT22;5334;48.928;12.704;2023-01-19T15:48:40;1.60;99.90
10572;DHT22;5334;48.928;12.704;2023-01-19T15:51:14;1.60;99.90
10572;DHT22;5334;48.928;12.704;2023-01-19T15:53:41;1.60;99.90
10572;DHT22;5334;48.928;12.704;2023-01-19T15:56:27;1.60;99.90
10572;DHT22;5334;48.928;12.704;2023-01-19T15:58:54;1.60;99.90
10572;DHT22;5334;48.928;12.704;2023-01-19T16:01:22;1.50;99.90
10572;DHT22;5334;48.928;12.704;2023-01-19T16:03:49;1.50;99.90
10572;DHT22;5334;48.928;12.704;2023-01-19T16:06:15;1.60;99.90
10572;DHT22;5334;48.928;12.704;2023-01-19T16:08:42;1.50;99.90
10572;DHT22;5334;48.928;12.704;2023-01-19T16:11:10;1.50;99.90
10572;DHT22;5334;48.928;12.704;2023-01-19T16:13:37;1.50;99.90
10572;DHT22;5334;48.928;12.704;2023-01-19T16:16:06;1.60;99.90
10572;DHT22;5334;48.928;12.704;2023-01-19T16:18:32;1.60;99.90
10572;DHT22;5334;48.928;12.704;2023-01-19T16:21:00;1.60;99.90
10572;DHT22;5334;48.928;12.704;2023-01-19T16:23:25;1.60;99.90
10572;DHT22;5334;48.928;12.704;2023-01-19T16:28:43;1.60;99.90
10572;DHT22;5334;48.928;12.704;2023-01-19T16:31:09;1.60;99.90
10572;DHT22;5334;48.928;12.704;2023-01-19T16:33:34;1.60;99.90
10572;DHT22;5334;48.928;12.704;2023-01-19T16:36:17;1.60;99.90
10572;DHT22;5334;48.928;12.704;2023-01-19T16:38:42;1.60;99.90
10572;DHT22;5334;48.928;12.704;2023-01-19T16:41:09;1.50;99.90
10572;DHT22;5334;48.928;12.704;2023-01-19T16:43:34;1.50;99.90
10572;DHT22;5334;48.928;12.704;2023-01-19T16:46:01;1.50;99.90
10572;DHT22;5334;48.928;12.704;2023-01-19T16:48:28;1.50;99.90
10572;DHT22;5334;48.928;12.704;2023-01-19T16:51:02;1.50;99.90
10572;DHT22;5334;48.928;12.704;2023-01-19T16:53:28;1.60;99.90
10572;DHT22;5334;48.928;12.704;2023-01-19T16:55:54;1.50;99.90
10572;DHT22;5334;48.928;12.704;2023-01-19T16:58:20;1.60;99.90
10572;DHT22;5334;48.928;12.704;2023-01-19T17:00:46;1.60;99.90
10572;DHT22;5334;48.928;12.704;2023-01-19T17:03:11;1.60;99.90
10572;DHT22;5334;48.928;12.704;2023-01-19T17:05:37;1.60;99.90
10572;DHT22;5334;48.928;12.704;2023-01-19T17:08:03;1.50;99.90
10572;DHT22;5334;48.928;12.704;2023-01-19T17:10:28;1.40;99.90
10572;DHT22;5334;48.928;12.704;2023-01-19T17:12:54;1.40;99.90
10572;DHT22;5334;48.928;12.704;2023-01-19T17:15:19;1.40;99.90
10572;DHT22;5334;48.928;12.704;2023-01-19T17:17:45;1.40;99.90
10572;DHT22;5334;48.928;12.704;2023-01-19T17:20:11;1.40;99.90
10572;DHT22;5334;48.928;12.704;2023-01-19T17:22:37;1.40;99.90
10572;DHT22;5334;48.928;12.704;2023-01-19T17:25:03;1.40;99.90
10572;DHT22;5334;48.928;12.704;2023-01-19T17:27:29;1.40;99.90
10572;DHT22;5334;48.928;12.704;2023-01-19T17:29:55;1.30;99.90
10572;DHT22;5334;48.928;12.704;2023-01-19T17:39:41;1.30;99.90
10572;DHT22;5334;48.928;12.704;2023-01-19T17:42:07;1.20;99.90
10572;DHT22;5334;48.928;12.704;2023-01-19T17:44:33;1.20;99.90
10572;DHT22;5334;48.928;12.704;2023-01-19T17:46:58;1.20;99.90
10572;DHT22;5334;48.928;12.704;2023-01-19T17:49:24;1.20;99.90
10572;DHT22;5334;48.928;12.704;2023-01-19T17:51:50;1.20;99.90
10572;DHT22;5334;48.928;12.704;2023-01-19T17:54:20;1.20;99.90
10572;DHT22;5334;48.928;12.704;2023-01-19T17:56:46;1.20;99.90
10572;DHT22;5334;48.928;12.704;2023-01-19T17:59:11;1.20;99.90
10572;DHT22;5334;48.928;12.704;2023-01-19T18:01:37;1.20;99.90
10572;DHT22;5334;48.928;12.704;2023-01-19T18:04:05;1.10;99.90
10572;DHT22;5334;48.928;12.704;2023-01-19T18:06:31;1.10;99.90
10572;DHT22;5334;48.928;12.704;2023-01-19T18:08:58;1.10;99.90
10572;DHT22;5334;48.928;12.704;2023-01-19T18:11:25;1.10;99.90